North Chili, New York
Current Conditions -  °F | °C
As of 7:54 AM on Friday 19 Dec 2014 (Local Time) from KROC Reporting Station
Light Snow Light Snow  
Wind Chill: 15°   Ceiling: 1200
Heat Index: 25°   Visibility: 10mi
Dew Point: 21°   Wind: 10mph
Humidity: 85%   Direction: 300°WNW
Pressure: 30.14"   Gusts: NA
Location:  43.12°N, 77.8°W
Report Text: KROC 191254Z 30009KT 10SM -SN OVC012 M04/M06 A3014 RMK AO2 SNE29B50 SLP216 P0000 T10391061
Loading
Personal Weather Stations






























Interactive Weather Map New forecast layout! Learn more

10-Day Weather Forecast

Advertisements
Track Severe Weather on mobile